Time;durP1;ratioP1;P1;durP2;ratioP2;P2;SDS_P1;SDS_P2;PMS_P1;PMS_P2;Temp;Humidity;BMP_temperature;BMP_pressure;BME280_temperature;BME280_humidity;BME280_pressure;Samples;Min_cycle;Max_cycle;Signal;HPM_P1;HPM_P2
2022/09/25 00:01:32;;;;;;;10.52;3.55;;;;;;;9.82;57.68;94273.78;6165896;23;20005;-76
2022/09/25 00:03:57;;;;;;;7.70;3.67;;;;;;;9.77;58.38;94273.88;6166288;23;20003;-76
2022/09/25 00:06:25;;;;;;;6.85;3.45;;;;;;;9.77;58.96;94269.38;6165990;23;20350;-76
2022/09/25 00:08:51;;;;;;;7.35;3.80;;;;;;;9.71;59.20;94261.75;6166005;23;20001;-76
2022/09/25 00:11:23;;;;;;;8.70;3.80;;;;;;;9.68;59.63;94268.47;6166068;23;19990;-76
2022/09/25 00:13:50;;;;;;;5.10;3.30;;;;;;;9.70;59.77;94266.31;6166025;23;20013;-76
2022/09/25 00:16:18;;;;;;;5.82;3.58;;;;;;;9.67;60.02;94264.25;6166218;23;20052;-76
2022/09/25 00:21:31;;;;;;;4.85;2.80;;;;;;;9.66;60.08;94267.19;6166010;23;20343;-76
2022/09/25 00:24:02;;;;;;;6.40;3.22;;;;;;;9.62;60.17;94267.78;6165913;23;20021;-76
2022/09/25 00:26:31;;;;;;;9.00;3.55;;;;;;;9.59;60.44;94267.59;6166116;23;20005;-76
2022/09/25 00:29:00;;;;;;;6.80;3.38;;;;;;;9.56;60.72;94260.97;6166063;23;20063;-76
2022/09/25 00:31:26;;;;;;;5.07;2.75;;;;;;;9.52;61.02;94261.88;6165722;23;20048;-76
2022/09/25 00:34:03;;;;;;;5.13;3.00;;;;;;;9.48;61.05;94266.22;6165354;23;20013;-76
2022/09/25 00:36:31;;;;;;;4.57;3.22;;;;;;;9.41;61.37;94256.75;6165945;23;20009;-76
2022/09/25 00:38:57;;;;;;;8.00;3.40;;;;;;;9.37;61.29;94266.41;6165777;23;19997;-76
2022/09/25 00:41:24;;;;;;;8.18;3.60;;;;;;;9.34;61.42;94250.25;6165763;23;20008;-76
2022/09/25 00:43:55;;;;;;;6.88;3.60;;;;;;;9.31;61.01;94256.16;6165853;23;19997;-76
2022/09/25 00:46:41;;;;;;;4.75;3.22;;;;;;;9.26;61.33;94259.72;6165795;23;20008;-76
2022/09/25 00:49:09;;;;;;;5.78;3.58;;;;;;;9.15;61.97;94248.47;6166027;23;19998;-76
2022/09/25 00:51:49;;;;;;;9.57;3.58;;;;;;;9.15;62.07;94245.00;6165813;23;20024;-76
2022/09/25 00:54:51;;;;;;;6.63;3.63;;;;;;;9.14;62.14;94252.22;6165664;23;20005;-75
2022/09/25 00:57:20;;;;;;;6.43;3.63;;;;;;;9.10;62.36;94247.75;6165720;23;20024;-75
2022/09/25 00:59:51;;;;;;;9.25;3.75;;;;;;;9.00;62.58;94257.50;6165707;23;19997;-76
2022/09/25 01:02:23;;;;;;;8.60;3.53;;;;;;;8.95;62.59;94252.25;6165639;23;20001;-76
2022/09/25 01:04:50;;;;;;;6.55;4.07;;;;;;;8.93;62.56;94240.34;6165576;23;19997;-76
2022/09/25 01:07:16;;;;;;;6.88;3.78;;;;;;;8.89;62.53;94253.44;6165598;23;20307;-76
2022/09/25 01:09:43;;;;;;;12.38;3.97;;;;;;;8.86;62.93;94246.06;6165903;23;19998;-76
2022/09/25 01:12:08;;;;;;;6.28;3.55;;;;;;;8.82;63.07;94239.75;6165885;23;20020;-76
2022/09/25 01:14:34;;;;;;;6.95;3.63;;;;;;;8.80;63.38;94236.59;6165553;23;20300;-76
2022/09/25 01:17:14;;;;;;;7.03;4.20;;;;;;;8.76;63.25;94246.22;6165528;23;20280;-76
2022/09/25 01:20:15;;;;;;;7.15;3.65;;;;;;;8.74;63.66;94237.75;6165592;23;20008;-76
2022/09/25 01:23:11;;;;;;;6.72;4.07;;;;;;;8.71;63.87;94243.66;6165738;23;20021;-76
2022/09/25 01:26:14;;;;;;;10.25;4.18;;;;;;;8.58;64.17;94235.34;6165509;23;20267;-76
2022/09/25 01:28:48;;;;;;;8.77;4.78;;;;;;;8.60;64.14;94241.16;6165413;23;20238;-75
2022/09/25 01:31:31;;;;;;;6.57;4.13;;;;;;;8.58;64.10;94213.31;6165253;23;20013;-75
2022/09/25 01:34:11;;;;;;;9.40;4.22;;;;;;;8.55;64.44;94227.19;6165437;23;20003;-75
2022/09/25 01:36:51;;;;;;;5.43;3.72;;;;;;;8.55;64.33;94240.47;6165245;23;20048;-75
2022/09/25 01:39:21;;;;;;;5.15;3.35;;;;;;;8.50;64.13;94230.69;6165480;23;20020;-75
2022/09/25 01:42:05;;;;;;;8.25;4.10;;;;;;;8.50;64.35;94237.88;6163865;23;20028;-75
2022/09/25 01:44:44;;;;;;;6.00;3.90;;;;;;;8.46;64.64;94248.28;6165057;23;20048;-75
2022/09/25 01:47:21;;;;;;;5.22;3.70;;;;;;;8.46;64.75;94244.84;6165638;23;20040;-75
2022/09/25 01:49:52;;;;;;;5.43;3.50;;;;;;;8.40;64.01;94249.41;6165211;23;20142;-75
2022/09/25 01:52:24;;;;;;;6.75;4.05;;;;;;;8.35;63.92;94244.97;6165274;23;20195;-75
2022/09/25 01:55:09;;;;;;;7.95;4.57;;;;;;;8.36;64.34;94248.41;6165296;23;20001;-76
2022/09/25 01:58:10;;;;;;;9.82;4.55;;;;;;;8.39;63.69;94248.63;6165212;23;20002;-76
2022/09/25 02:00:40;;;;;;;8.25;4.63;;;;;;;8.39;63.91;94255.81;6165059;23;20232;-76
2022/09/25 02:03:15;;;;;;;11.32;5.30;;;;;;;8.42;64.34;94249.94;6165075;23;19997;-75
2022/09/25 02:05:53;;;;;;;7.35;4.57;;;;;;;8.45;64.05;94238.75;6165331;23;20200;-76
2022/09/25 02:08:35;;;;;;;9.30;4.85;;;;;;;8.44;63.80;94237.94;6165047;23;19997;-76
2022/09/25 02:11:03;;;;;;;10.77;3.77;;;;;;;8.39;64.13;94237.22;6165067;23;20060;-75
2022/09/25 02:13:42;;;;;;;7.53;4.43;;;;;;;8.35;64.26;94228.25;6164850;23;20093;-75
2022/09/25 02:16:16;;;;;;;6.45;4.32;;;;;;;8.37;64.50;94237.50;6164793;23;20005;-75
2022/09/25 02:22:03;;;;;;;7.13;3.67;;;;;;;8.34;64.59;94235.41;6164710;23;20012;-75
2022/09/25 02:24:39;;;;;;;6.20;3.55;;;;;;;8.29;64.81;94232.06;6164894;23;19998;-76
2022/09/25 02:27:05;;;;;;;6.15;3.72;;;;;;;8.23;65.12;94239.31;6165100;23;20243;-74
2022/09/25 02:29:31;;;;;;;6.20;3.53;;;;;;;8.22;64.78;94248.34;6164940;23;20044;-74
2022/09/25 02:32:06;;;;;;;12.25;6.22;;;;;;;8.24;64.91;94257.63;6164714;23;20009;-74
2022/09/25 02:34:32;;;;;;;11.30;6.20;;;;;;;8.21;64.96;94236.16;6163823;23;20024;-75
2022/09/25 02:36:59;;;;;;;14.50;7.18;;;;;;;8.19;65.24;94244.41;6164737;23;20032;-75
2022/09/25 02:39:28;;;;;;;13.43;6.95;;;;;;;8.19;65.45;94244.41;6164792;23;20005;-74
2022/09/25 02:42:21;;;;;;;8.40;4.95;;;;;;;8.16;65.34;94242.34;6164731;23;20033;-74
2022/09/25 02:45:20;;;;;;;12.00;6.72;;;;;;;8.14;65.55;94227.75;6164713;23;20005;-75
2022/09/25 02:48:29;;;;;;;10.10;6.18;;;;;;;8.12;65.73;94229.91;6164810;23;20060;-75
2022/09/25 02:51:09;;;;;;;11.23;5.10;;;;;;;8.15;66.16;94238.09;6164842;23;20342;-75
2022/09/25 02:53:38;;;;;;;13.18;5.40;;;;;;;8.10;66.10;94240.03;6164947;23;20001;-75
2022/09/25 02:56:30;;;;;;;8.70;4.80;;;;;;;8.12;66.22;94235.22;6164439;23;20308;-75
2022/09/25 02:59:06;;;;;;;8.95;4.78;;;;;;;8.12;66.54;94238.69;6164733;23;19998;-75
2022/09/25 03:01:35;;;;;;;6.25;4.25;;;;;;;8.16;66.16;94245.00;6164580;23;20001;-74
2022/09/25 03:04:04;;;;;;;7.22;4.72;;;;;;;8.14;66.31;94238.38;6164728;23;20061;-74
2022/09/25 03:06:30;;;;;;;8.55;4.97;;;;;;;8.11;66.40;94221.16;6164584;23;20097;-74
2022/09/25 03:08:57;;;;;;;7.78;4.38;;;;;;;8.13;66.31;94234.16;6164382;23;19997;-74
2022/09/25 03:11:27;;;;;;;8.45;4.43;;;;;;;8.11;66.33;94237.09;6164762;23;20089;-74
2022/09/25 03:14:01;;;;;;;7.13;4.53;;;;;;;8.10;66.44;94229.41;6164573;23;20005;-75
2022/09/25 03:16:43;;;;;;;8.20;4.95;;;;;;;8.08;66.58;94226.25;6164880;23;20020;-75
2022/09/25 03:19:09;;;;;;;10.25;5.28;;;;;;;8.14;66.52;94233.06;6164700;23;20005;-75
2022/09/25 03:21:35;;;;;;;6.55;4.18;;;;;;;8.14;66.92;94231.22;6164565;23;20061;-74
2022/09/25 03:24:00;;;;;;;8.77;5.10;;;;;;;8.12;66.72;94237.88;6164637;23;20004;-75
2022/09/25 03:26:26;;;;;;;11.98;5.80;;;;;;;8.09;66.94;94227.84;6164702;23;20005;-75
2022/09/25 03:28:52;;;;;;;8.40;5.05;;;;;;;8.13;67.29;94226.19;6164375;23;20299;-75
2022/09/25 03:31:17;;;;;;;10.32;5.72;;;;;;;8.12;67.42;94229.91;6164487;23;20017;-75
2022/09/25 03:33:44;;;;;;;9.27;5.53;;;;;;;8.06;67.53;94223.09;6164619;23;20017;-75
2022/09/25 03:36:12;;;;;;;10.95;5.70;;;;;;;8.04;67.64;94228.72;6164775;23;20001;-74
2022/09/25 03:38:40;;;;;;;9.93;5.70;;;;;;;7.98;67.18;94224.56;6164619;23;20052;-74
2022/09/25 03:41:07;;;;;;;14.27;7.03;;;;;;;7.92;67.59;94229.16;6164509;23;20207;-74
2022/09/25 03:43:35;;;;;;;13.02;7.85;;;;;;;7.94;68.30;94231.53;6164521;23;20222;-74
2022/09/25 03:46:02;;;;;;;15.77;7.78;;;;;;;7.90;67.98;94219.91;6164620;23;20012;-74
2022/09/25 03:48:27;;;;;;;19.05;8.38;;;;;;;7.82;68.48;94211.50;6164559;23;19993;-75
2022/09/25 03:50:55;;;;;;;15.25;6.82;;;;;;;7.86;68.79;94230.28;6164151;23;20196;-75
2022/09/25 03:53:20;;;;;;;11.27;6.85;;;;;;;7.79;68.37;94230.63;6164545;23;20001;-74
2022/09/25 03:55:47;;;;;;;16.38;7.88;;;;;;;7.69;69.08;94230.75;6164538;23;20010;-75
2022/09/25 03:58:14;;;;;;;11.65;7.63;;;;;;;7.64;69.31;94234.28;6164635;23;20053;-75
2022/09/25 04:00:40;;;;;;;15.07;7.90;;;;;;;7.60;69.62;94243.09;6164638;23;20219;-75
2022/09/25 04:03:06;;;;;;;13.60;7.97;;;;;;;7.50;69.69;94228.09;6164631;23;20053;-75
2022/09/25 04:05:31;;;;;;;14.82;7.25;;;;;;;7.48;70.31;94235.53;6164279;23;20048;-75
2022/09/25 04:08:00;;;;;;;13.35;7.30;;;;;;;7.44;70.50;94247.78;6164409;23;20065;-75
2022/09/25 04:10:27;;;;;;;14.18;7.55;;;;;;;7.41;70.50;94240.41;6166209;23;20001;-75
2022/09/25 04:12:53;;;;;;;15.27;8.23;;;;;;;7.39;70.75;94251.28;6166245;23;20012;-75
2022/09/25 04:15:23;;;;;;;16.92;8.43;;;;;;;7.40;70.81;94247.56;6166061;23;20300;-76
2022/09/25 04:17:49;;;;;;;17.60;8.38;;;;;;;7.46;70.85;94247.50;6166062;23;20169;-75
2022/09/25 04:20:14;;;;;;;16.17;8.30;;;;;;;7.47;70.92;94239.28;6166080;23;20002;-75
2022/09/25 04:22:40;;;;;;;15.63;8.52;;;;;;;7.47;70.93;94249.06;6164662;23;20286;-76
2022/09/25 04:25:06;;;;;;;14.27;7.35;;;;;;;7.43;70.92;94247.00;6166250;23;20002;-75
2022/09/25 04:27:32;;;;;;;14.90;8.63;;;;;;;7.46;70.74;94252.81;6166004;23;20043;-76
2022/09/25 04:29:57;;;;;;;13.82;7.88;;;;;;;7.45;70.65;94246.72;6165955;23;20009;-75
2022/09/25 04:35:09;;;;;;;17.15;9.13;;;;;;;7.38;71.22;94257.66;6166044;23;20017;-75
2022/09/25 04:37:35;;;;;;;16.13;7.72;;;;;;;7.41;71.26;94246.50;6165872;23;19994;-76
2022/09/25 04:40:01;;;;;;;13.15;7.72;;;;;;;7.42;71.12;94266.63;6165937;23;20240;-76
2022/09/25 04:42:26;;;;;;;13.88;7.90;;;;;;;7.47;71.01;94259.69;6165842;23;20044;-75
2022/09/25 04:44:56;;;;;;;15.82;7.15;;;;;;;7.41;71.14;94246.50;6165541;23;20001;-75
2022/09/25 04:47:23;;;;;;;15.05;8.25;;;;;;;7.40;71.11;94252.88;6165952;23;20020;-75
2022/09/25 04:49:49;;;;;;;14.35;7.97;;;;;;;7.44;70.94;94253.09;6165862;23;20024;-74
2022/09/25 04:52:16;;;;;;;14.23;8.45;;;;;;;7.47;70.93;94249.88;6165682;23;19997;-74
2022/09/25 04:54:42;;;;;;;15.93;8.60;;;;;;;7.53;70.79;94254.06;6166073;23;20231;-75
2022/09/25 04:57:15;;;;;;;12.68;7.28;;;;;;;7.57;70.83;94248.94;6165478;23;20039;-75
2022/09/25 04:59:41;;;;;;;17.80;8.18;;;;;;;7.61;70.68;94252.63;6165850;23;19997;-75
2022/09/25 05:02:06;;;;;;;15.93;8.15;;;;;;;7.69;70.63;94249.34;6165641;23;20292;-75
2022/09/25 05:04:32;;;;;;;13.52;7.00;;;;;;;7.79;70.72;94251.84;6165919;23;20060;-76
2022/09/25 05:06:57;;;;;;;14.23;8.02;;;;;;;7.88;70.64;94254.69;6165665;23;20009;-76
2022/09/25 05:09:23;;;;;;;18.58;9.68;;;;;;;7.94;70.43;94252.75;6165505;23;20240;-75
2022/09/25 05:11:49;;;;;;;17.08;8.80;;;;;;;7.96;70.35;94250.59;6165672;23;20002;-76
2022/09/25 05:14:14;;;;;;;17.35;9.30;;;;;;;8.03;70.07;94251.81;6165485;23;20004;-75
2022/09/25 05:16:39;;;;;;;13.45;8.50;;;;;;;8.12;70.12;94248.50;6165575;23;20019;-75
2022/09/25 05:19:05;;;;;;;16.33;8.25;;;;;;;8.23;70.19;94248.06;6164288;23;20242;-75
2022/09/25 05:21:31;;;;;;;17.08;9.15;;;;;;;8.36;70.00;94240.44;6164979;23;20300;-76
2022/09/25 05:23:57;;;;;;;14.80;7.90;;;;;;;8.49;69.57;94245.06;6165679;23;20003;-76
2022/09/25 05:26:22;;;;;;;14.85;7.60;;;;;;;8.60;69.20;94243.81;6165564;23;20002;-75
2022/09/25 05:28:49;;;;;;;13.95;8.32;;;;;;;8.76;68.56;94246.22;6165564;23;20012;-75
2022/09/25 05:31:15;;;;;;;17.85;9.02;;;;;;;8.84;67.86;94237.59;6165375;23;20029;-75
2022/09/25 05:33:42;;;;;;;17.83;9.05;;;;;;;8.97;67.09;94241.34;6165690;23;20005;-75
2022/09/25 05:36:09;;;;;;;20.88;9.52;;;;;;;9.08;67.15;94237.44;6165339;23;20250;-74
2022/09/25 05:38:39;;;;;;;19.88;9.18;;;;;;;9.22;66.99;94232.91;6165363;23;19998;-76
2022/09/25 05:41:07;;;;;;;24.08;9.73;;;;;;;9.37;66.87;94239.81;6165526;23;20003;-76
2022/09/25 05:43:38;;;;;;;18.23;9.50;;;;;;;9.55;66.67;94234.69;6165382;23;20199;-76
2022/09/25 05:46:03;;;;;;;19.65;9.68;;;;;;;9.74;65.22;94240.66;6165148;23;20037;-76
2022/09/25 05:48:29;;;;;;;26.52;11.32;;;;;;;9.83;64.48;94241.56;6165302;23;20202;-75
2022/09/25 05:50:56;;;;;;;20.42;10.02;;;;;;;9.98;64.36;94248.41;6165259;23;20064;-75
2022/09/25 05:53:22;;;;;;;17.92;10.10;;;;;;;10.07;64.65;94248.50;6163844;23;20017;-75
2022/09/25 05:56:02;;;;;;;16.58;9.98;;;;;;;9.95;64.32;94259.69;6165437;23;20005;-75
2022/09/25 05:58:29;;;;;;;25.38;9.70;;;;;;;9.93;64.32;94256.53;6165062;23;20001;-76
2022/09/25 06:00:59;;;;;;;18.88;10.07;;;;;;;9.99;64.33;94250.00;6164961;23;20001;-76
2022/09/25 06:03:27;;;;;;;17.63;10.43;;;;;;;10.07;64.10;94250.38;6165194;23;20017;-76
2022/09/25 06:05:55;;;;;;;24.00;9.75;;;;;;;10.17;64.13;94255.47;6165309;23;20021;-75
2022/09/25 06:08:20;;;;;;;19.23;9.00;;;;;;;10.29;63.79;94244.31;6164836;23;20001;-76
2022/09/25 06:10:51;;;;;;;18.52;9.85;;;;;;;10.48;60.84;94250.25;6165252;23;19996;-75
2022/09/25 06:13:17;;;;;;;17.35;9.63;;;;;;;10.58;60.72;94242.06;6165358;23;19997;-75
2022/09/25 06:15:43;;;;;;;20.63;9.25;;;;;;;10.69;60.35;94244.47;6165140;23;20240;-74
2022/09/25 06:18:16;;;;;;;20.63;9.13;;;;;;;10.72;60.92;94255.28;6165271;23;19994;-74
2022/09/25 06:20:41;;;;;;;15.98;10.30;;;;;;;10.81;61.04;94250.81;6165045;23;20184;-74
2022/09/25 06:23:06;;;;;;;15.25;9.45;;;;;;;11.00;61.18;94250.59;6164835;23;19998;-74
2022/09/25 06:25:32;;;;;;;16.88;9.23;;;;;;;11.13;60.87;94253.50;6164990;23;20008;-74
2022/09/25 06:27:59;;;;;;;14.98;9.23;;;;;;;11.32;60.27;94251.41;6165209;23;20023;-74
2022/09/25 06:30:32;;;;;;;27.98;8.73;;;;;;;11.50;59.75;94251.44;6164586;23;20013;-74
2022/09/25 06:33:10;;;;;;;18.35;9.00;;;;;;;11.58;59.13;94248.03;6165145;23;20017;-74
2022/09/25 06:35:40;;;;;;;20.58;8.07;;;;;;;11.77;58.67;94248.56;6164851;23;20049;-74
2022/09/25 06:38:06;;;;;;;14.63;8.63;;;;;;;11.93;57.83;94253.50;6164891;23;20017;-74
2022/09/25 06:40:32;;;;;;;13.68;6.07;;;;;;;12.11;56.99;94254.31;6164817;23;19993;-68
2022/09/25 06:43:02;;;;;;;10.73;5.50;;;;;;;12.28;56.25;94254.34;6164906;23;20021;-71
2022/09/25 06:45:31;;;;;;;8.70;5.05;;;;;;;12.43;55.32;94250.41;6163285;23;20013;-74
2022/09/25 06:48:01;;;;;;;9.38;4.22;;;;;;;12.54;54.36;94259.69;6165129;23;20243;-75
2022/09/25 06:50:30;;;;;;;8.80;3.88;;;;;;;12.63;53.22;94246.31;6165106;23;19997;-75
2022/09/25 06:53:02;;;;;;;6.72;3.72;;;;;;;12.73;53.13;94253.22;6164760;23;20060;-76
2022/09/25 06:55:31;;;;;;;7.70;4.13;;;;;;;12.85;52.18;94256.81;6165172;23;20017;-79
2022/09/25 06:57:57;;;;;;;6.20;2.70;;;;;;;12.99;51.64;94256.66;6164692;23;20225;-77
2022/09/25 07:00:23;;;;;;;6.10;4.10;;;;;;;13.09;51.46;94257.41;6164487;23;20002;-79
2022/09/25 07:05:33;;;;;;;4.05;2.80;;;;;;;13.27;50.71;94256.28;6164565;23;20043;-79
2022/09/25 07:07:59;;;;;;;5.35;3.03;;;;;;;13.37;50.04;94269.34;6163506;23;20004;-81
2022/09/25 07:10:24;;;;;;;6.03;3.05;;;;;;;13.42;48.86;94263.00;6164801;23;20304;-79
2022/09/25 07:12:50;;;;;;;7.47;3.83;;;;;;;13.13;49.45;94271.75;6164796;23;19993;-80
2022/09/25 07:15:18;;;;;;;8.25;4.15;;;;;;;13.23;48.93;94282.09;6165130;23;20001;-79
2022/09/25 07:17:44;;;;;;;5.93;3.10;;;;;;;13.30;49.02;94287.00;6164847;23;20340;-79
2022/09/25 07:20:15;;;;;;;9.00;4.05;;;;;;;13.39;49.58;94296.56;6164617;23;20035;-79
2022/09/25 07:22:41;;;;;;;5.05;3.58;;;;;;;13.46;49.40;94295.28;6164931;23;20078;-78
2022/09/25 07:25:11;;;;;;;10.38;3.80;;;;;;;13.43;48.78;94292.16;6164865;23;19997;-79
2022/09/25 07:27:37;;;;;;;7.80;3.95;;;;;;;13.43;48.42;94302.06;6164741;23;20023;-77
2022/09/25 07:30:06;;;;;;;6.85;4.00;;;;;;;13.41;48.07;94294.38;6164701;23;20308;-78
2022/09/25 07:32:41;;;;;;;8.45;4.10;;;;;;;13.38;48.54;94295.00;6164347;23;19998;-78
2022/09/25 07:35:07;;;;;;;10.73;4.32;;;;;;;13.44;48.73;94293.72;6164094;23;20021;-77
2022/09/25 07:37:32;;;;;;;9.75;4.78;;;;;;;13.47;49.66;94292.28;6164795;23;20006;-78
2022/09/25 07:39:58;;;;;;;9.93;5.18;;;;;;;13.39;49.21;94279.69;6164688;23;19998;-78
2022/09/25 07:42:23;;;;;;;10.00;4.78;;;;;;;13.39;49.19;94274.34;6164191;23;20044;-76
2022/09/25 07:44:49;;;;;;;12.18;4.75;;;;;;;13.38;49.79;94265.53;6166251;23;20288;-77
2022/09/25 07:47:15;;;;;;;8.13;4.45;;;;;;;13.47;49.47;94259.38;6166368;23;20304;-77
2022/09/25 07:49:41;;;;;;;9.20;4.25;;;;;;;13.56;48.96;94254.78;6166614;23;20155;-77
2022/09/25 07:52:06;;;;;;;17.45;4.57;;;;;;;13.56;48.17;94252.09;6166113;23;19998;-79
2022/09/25 07:54:34;;;;;;;9.05;5.10;;;;;;;13.62;48.38;94245.44;6166153;23;20457;-79
2022/09/25 07:57:00;;;;;;;6.47;4.78;;;;;;;13.73;48.17;94235.94;6166256;23;20061;-77
2022/09/25 07:59:25;;;;;;;10.85;5.47;;;;;;;13.88;48.42;94236.47;6166387;23;19998;-77
2022/09/25 08:01:51;;;;;;;17.95;5.88;;;;;;;14.02;48.28;94242.38;6166260;23;20046;-77
2022/09/25 08:04:17;;;;;;;8.90;5.30;;;;;;;14.11;47.75;94237.75;6165996;23;20330;-78
2022/09/25 08:06:42;;;;;;;14.93;5.20;;;;;;;14.21;47.70;94244.66;6166094;23;20025;-79
2022/09/25 08:09:10;;;;;;;9.75;5.70;;;;;;;14.21;47.68;94248.09;6166114;23;20005;-78
2022/09/25 08:11:36;;;;;;;10.80;5.50;;;;;;;14.24;47.09;94252.03;6166170;23;20000;-78
2022/09/25 08:14:02;;;;;;;10.95;5.53;;;;;;;14.24;47.77;94246.66;6165968;23;19997;-78
2022/09/25 08:16:27;;;;;;;11.15;5.57;;;;;;;14.29;47.17;94237.63;6165986;23;20017;-78
2022/09/25 08:18:53;;;;;;;12.52;5.82;;;;;;;14.37;46.58;94240.25;6165607;23;19997;-78
2022/09/25 08:21:19;;;;;;;15.23;5.57;;;;;;;14.43;46.34;94230.09;6166054;23;20001;-78
2022/09/25 08:23:51;;;;;;;13.00;5.50;;;;;;;14.49;46.25;94218.09;6165847;23;20199;-78
2022/09/25 08:26:19;;;;;;;10.95;5.47;;;;;;;14.50;46.43;94218.88;6166021;23;20065;-78
2022/09/25 08:28:45;;;;;;;17.45;6.40;;;;;;;14.63;46.40;94212.47;6165878;23;20187;-78
2022/09/25 08:31:13;;;;;;;13.63;5.53;;;;;;;14.61;46.54;94215.50;6165908;23;20064;-78
2022/09/25 08:33:43;;;;;;;15.48;5.25;;;;;;;14.64;46.59;94204.09;6166261;23;20001;-78
2022/09/25 08:36:09;;;;;;;8.93;4.97;;;;;;;14.84;46.27;94212.44;6166218;23;20009;-78
2022/09/25 08:38:35;;;;;;;9.45;4.18;;;;;;;14.94;44.68;94198.59;6165512;23;19997;-77
2022/09/25 08:41:12;;;;;;;8.63;4.45;;;;;;;15.11;43.60;94199.53;6165680;23;19993;-76
2022/09/25 08:43:44;;;;;;;8.60;4.63;;;;;;;15.21;42.66;94207.94;6165874;23;20008;-79
2022/09/25 08:49:11;;;;;;;6.78;4.22;;;;;;;15.39;41.60;94213.88;6165746;23;20028;-76
2022/09/25 08:51:47;;;;;;;14.90;4.10;;;;;;;15.44;41.75;94208.28;6166186;23;19993;-75
2022/09/25 08:54:25;;;;;;;11.27;4.60;;;;;;;15.56;42.59;94204.03;6166048;23;20009;-81
2022/09/25 08:56:55;;;;;;;11.43;4.45;;;;;;;15.67;42.87;94204.38;6165538;23;20346;-81
2022/09/25 08:59:27;;;;;;;6.07;3.67;;;;;;;15.77;42.40;94196.69;6165543;23;20203;-77
2022/09/25 09:01:58;;;;;;;9.90;4.43;;;;;;;15.89;42.02;94211.22;6163998;23;20001;-76
2022/09/25 09:04:40;;;;;;;7.13;4.18;;;;;;;15.90;41.03;94205.50;6165694;23;20060;-77
2022/09/25 09:07:10;;;;;;;11.13;4.75;;;;;;;16.08;40.93;94191.81;6165672;23;20231;-81
2022/09/25 09:09:46;;;;;;;8.02;3.88;;;;;;;16.27;40.91;94199.28;6165712;23;20084;-78
2022/09/25 09:12:33;;;;;;;6.53;3.53;;;;;;;16.32;39.86;94190.97;6165874;23;20000;-77
2022/09/25 09:15:14;;;;;;;10.65;4.95;;;;;;;16.44;40.06;94188.25;6165607;23;20065;-78
2022/09/25 09:17:41;;;;;;;11.93;4.88;;;;;;;16.62;39.79;94183.34;6165738;23;20012;-79
2022/09/25 09:20:17;;;;;;;8.10;3.65;;;;;;;16.75;39.88;94176.81;6165738;23;20136;-78
2022/09/25 09:22:52;;;;;;;7.32;4.15;;;;;;;16.91;38.65;94182.22;6165378;23;20057;-78
2022/09/25 09:25:36;;;;;;;6.35;3.22;;;;;;;17.03;38.33;94171.38;6165260;23;20004;-77
2022/09/25 09:28:30;;;;;;;10.38;3.95;;;;;;;17.26;38.33;94176.22;6166145;23;20040;-80
2022/09/25 09:31:24;;;;;;;10.48;4.10;;;;;;;17.39;37.71;94171.50;6165685;23;20017;-83
2022/09/25 09:34:20;;;;;;;5.13;3.40;;;;;;;17.47;37.00;94165.16;6164935;23;20005;-83
2022/09/25 09:37:05;;;;;;;10.98;3.70;;;;;;;17.53;36.00;94171.84;6120485;23;20048;-85
2022/09/25 09:39:56;;;;;;;7.63;3.30;;;;;;;17.59;36.66;94175.06;6164626;23;20000;-83
2022/09/25 09:42:40;;;;;;;13.57;3.55;;;;;;;17.67;36.65;94159.81;6113365;23;20203;-83
2022/09/25 09:45:22;;;;;;;7.63;2.85;;;;;;;17.75;35.89;94164.25;6166044;23;20303;-88
2022/09/25 09:47:57;;;;;;;8.52;3.05;;;;;;;17.92;34.64;94158.50;6164713;23;20001;-84
2022/09/25 09:50:39;;;;;;;5.50;2.78;;;;;;;17.97;34.93;94162.81;6164621;23;20249;-85
2022/09/25 09:53:32;;;;;;;5.93;2.90;;;;;;;17.97;34.29;94154.75;6166380;23;20013;-85
2022/09/25 09:56:03;;;;;;;4.63;2.80;;;;;;;18.02;34.90;94160.66;6151454;23;20251;-83
2022/09/25 09:58:47;;;;;;;6.43;2.78;;;;;;;17.88;34.05;94151.47;6164251;23;20021;-86
2022/09/25 10:01:19;;;;;;;6.93;2.88;;;;;;;17.74;34.27;94160.75;6165818;23;20017;-86
2022/09/25 10:03:47;;;;;;;;;;;;;;;17.78;34.40;94156.22;6165456;23;20032;-84
2022/09/25 10:06:16;;;;;;;10.00;2.67;;;;;;;17.83;35.35;94147.91;6164548;23;19937;-92
2022/09/25 10:08:42;;;;;;;6.47;3.10;;;;;;;17.91;34.96;94145.34;6166251;23;20005;-88
2022/09/25 10:11:32;;;;;;;4.18;2.85;;;;;;;17.98;35.92;94153.63;6167812;23;20270;-93
2022/09/25 10:14:02;;;;;;;4.47;2.80;;;;;;;18.02;36.85;94149.84;6166399;23;20008;-87
2022/09/25 10:16:29;;;;;;;7.60;2.97;;;;;;;18.01;35.92;94153.69;6166187;23;20149;-87
2022/09/25 10:19:06;;;;;;;7.35;2.55;;;;;;;17.97;35.19;94146.66;6166597;23;19997;-89
2022/09/25 10:22:08;;;;;;;5.50;2.67;;;;;;;17.97;37.14;94142.06;6166150;23;20013;-90
2022/09/25 10:24:51;;;;;;;8.40;3.40;;;;;;;17.98;37.04;94142.84;6165501;23;20032;-81
2022/09/25 10:27:21;;;;;;;13.32;3.38;;;;;;;18.02;37.76;94141.00;6165427;23;20242;-83
2022/09/25 10:30:11;;;;;;;8.20;3.13;;;;;;;18.03;37.24;94139.84;6165749;23;20090;-82
2022/09/25 10:33:12;;;;;;;10.60;5.03;;;;;;;18.20;38.42;94114.38;6164550;23;20008;-82
2022/09/25 10:35:37;;;;;;;11.57;3.47;;;;;;;18.37;37.46;94122.03;6165387;23;20236;-81
2022/09/25 10:38:06;;;;;;;7.88;3.40;;;;;;;18.47;36.30;94119.91;6165256;23;20065;-82
2022/09/25 10:40:35;;;;;;;12.75;3.88;;;;;;;18.62;36.66;94119.84;6164951;23;20318;-83
2022/09/25 10:43:23;;;;;;;11.02;3.28;;;;;;;18.70;35.11;94118.03;6165156;23;20021;-79
2022/09/25 10:45:54;;;;;;;8.35;3.15;;;;;;;18.84;34.69;94107.50;6165254;23;20313;-90
2022/09/25 10:51:21;;;;;;;9.45;2.47;;;;;;;18.91;35.26;94108.78;6166098;23;20239;-89
2022/09/25 10:54:09;;;;;;;5.35;3.10;;;;;;;19.06;34.90;94118.69;6165859;23;20001;-88
2022/09/25 10:56:37;;;;;;;6.18;3.08;;;;;;;19.14;33.14;94108.78;6166752;23;20380;-86
2022/09/25 10:59:21;;;;;;;5.88;3.10;;;;;;;19.22;34.06;94099.66;6165038;23;20156;-88
2022/09/25 11:01:51;;;;;;;4.55;2.60;;;;;;;19.29;33.49;94102.47;6165456;23;20052;-88
2022/09/25 11:04:30;;;;;;;5.80;2.95;;;;;;;19.41;33.90;94104.97;6163854;23;20005;-87
2022/09/25 11:07:06;;;;;;;7.43;2.72;;;;;;;19.52;33.38;94090.81;6165929;23;20037;-88
2022/09/25 11:09:34;;;;;;;3.33;2.20;;;;;;;19.65;33.49;94087.56;6170022;23;19998;-88
2022/09/25 11:12:12;;;;;;;8.27;2.67;;;;;;;19.79;33.04;94084.31;6166856;23;19998;-87
2022/09/25 11:14:54;;;;;;;10.43;2.50;;;;;;;19.89;32.91;94085.59;6167476;23;20005;-87
2022/09/25 11:17:37;;;;;;;5.18;2.65;;;;;;;20.00;33.07;94081.09;6165549;23;20002;-87
2022/09/25 11:20:17;;;;;;;6.35;2.60;;;;;;;20.15;31.50;94079.34;6167620;23;19997;-88
2022/09/25 11:23:02;;;;;;;5.50;2.75;;;;;;;20.22;30.75;94079.44;6167702;23;20005;-88
2022/09/25 11:25:36;;;;;;;8.80;3.17;;;;;;;20.18;31.26;94077.84;6167791;23;20001;-87
2022/09/25 11:28:08;;;;;;;5.82;3.00;;;;;;;20.24;31.66;94079.06;6167859;23;20005;-88
2022/09/25 11:30:54;;;;;;;5.63;2.43;;;;;;;20.39;32.73;94071.88;6167471;23;20009;-88
2022/09/25 11:33:58;;;;;;;4.25;2.33;;;;;;;20.29;30.85;94062.50;6167676;23;20001;-90
2022/09/25 11:36:30;;;;;;;9.98;2.25;;;;;;;20.51;30.88;94063.50;6125845;23;20008;-89
2022/09/25 11:41:55;;;;;;;3.42;2.10;;;;;;;20.73;29.45;94067.22;6169104;23;20217;-90
2022/09/25 11:44:43;;;;;;;3.92;2.33;;;;;;;20.82;28.78;94064.22;6170360;23;20004;-89
2022/09/25 11:47:20;;;;;;;5.25;2.58;;;;;;;21.03;30.39;94056.28;6167441;23;20052;-89
2022/09/25 11:49:52;;;;;;;3.15;1.98;;;;;;;21.27;30.22;94048.75;6169369;23;20012;-89
2022/09/25 11:52:26;;;;;;;11.85;2.83;;;;;;;21.51;28.92;94046.59;6168099;23;19997;-81
2022/09/25 11:55:07;;;;;;;5.93;2.20;;;;;;;21.43;28.86;94043.84;6167013;23;20001;-83
2022/09/25 11:57:39;;;;;;;5.18;2.58;;;;;;;21.55;28.42;94053.56;6166772;23;20013;-86
2022/09/25 12:00:20;;;;;;;9.95;3.25;;;;;;;21.72;31.98;94044.00;6167606;23;20064;-87
2022/09/25 12:03:07;;;;;;;11.80;3.65;;;;;;;21.79;30.50;94032.41;6166345;23;20203;-83
2022/09/25 12:05:48;;;;;;;6.80;2.50;;;;;;;21.99;29.58;94035.59;6166710;23;20002;-81
2022/09/25 12:08:35;;;;;;;7.60;2.40;;;;;;;22.08;28.81;94014.31;6165141;23;20005;-82
2022/09/25 12:11:18;;;;;;;3.72;2.03;;;;;;;22.16;28.15;94015.88;6165930;23;19997;-80
2022/09/25 12:13:58;;;;;;;4.60;2.20;;;;;;;22.43;27.79;94018.34;6166482;23;19998;-87
2022/09/25 12:16:30;;;;;;;7.47;2.65;;;;;;;22.55;27.47;94009.81;6165986;23;19997;-78
2022/09/25 12:19:14;;;;;;;4.13;2.08;;;;;;;22.74;26.09;94011.41;6165962;23;20056;-78